createdAt,value
2019-04-16T14:17:34.964Z,20
2019-04-16T14:18:13.949Z,52
2019-04-16T14:18:54.651Z,8
2019-04-16T14:59:33.149Z,12
2019-04-16T15:00:50.253Z,72
2019-04-16T15:01:36.750Z,56
2019-04-16T15:02:32.164Z,28
2019-04-16T15:03:14.215Z,72
2019-04-16T15:05:28.510Z,56
2019-04-16T15:06:09.255Z,60
2019-04-16T15:06:52.711Z,56
2019-04-16T15:07:30.877Z,56
2019-04-16T15:08:11.580Z,60
2019-04-16T15:08:52.325Z,60
2019-04-16T15:09:33.023Z,56
2019-04-16T15:10:13.823Z,56
2019-04-16T15:10:54.598Z,56
2019-04-16T15:11:36.154Z,56
2019-04-16T15:12:17.077Z,56
2019-04-16T15:12:57.852Z,56
2019-04-16T15:13:39.671Z,56
2019-04-16T15:14:23.322Z,60
2019-04-16T15:15:03.177Z,60
2019-04-16T15:15:43.830Z,60
2019-04-16T15:16:24.618Z,56
2019-04-16T15:17:05.330Z,56
2019-04-16T15:17:46.207Z,56
2019-04-16T15:18:27.211Z,56
2019-04-16T15:19:10.152Z,56
2019-04-16T15:19:53.698Z,56
2019-04-16T15:20:36.105Z,60
2019-04-16T15:21:15.783Z,56
2019-04-16T15:21:56.984Z,56
2019-04-16T15:22:37.778Z,56
2019-04-16T15:23:18.490Z,56
2019-04-16T15:24:01.540Z,56
2019-04-16T15:26:32.599Z,56
2019-04-16T15:27:11.668Z,56
2019-04-16T15:27:52.670Z,56
2019-04-16T15:28:33.724Z,56
2019-04-16T15:29:14.603Z,48
2019-04-16T15:29:57.793Z,60
2019-04-16T15:30:41.837Z,56
2019-04-16T15:31:24.547Z,60
2019-04-16T15:32:06.016Z,60
2019-04-16T15:32:46.565Z,56
2019-04-16T15:33:27.735Z,56
2019-04-16T15:34:10.850Z,56
2019-04-16T15:34:49.818Z,56
2019-04-16T15:35:30.708Z,56
2019-04-16T15:36:11.642Z,56
2019-04-16T15:36:55.048Z,56
2019-04-16T15:37:33.194Z,56
2019-04-16T15:38:13.988Z,56
2019-04-16T15:38:55.535Z,56
2019-04-16T15:39:36.671Z,56
2019-04-16T15:40:16.530Z,56
2019-04-16T15:40:57.825Z,56
2019-04-16T15:41:41.582Z,56
2019-04-16T15:42:20.696Z,56
2019-04-16T15:43:02.036Z,56
2019-04-16T15:43:43.579Z,56
2019-04-16T15:44:31.653Z,60
2019-04-16T15:45:09.934Z,56
2019-04-16T15:45:50.673Z,56
2019-04-16T15:46:34.891Z,56
2019-04-16T15:47:13.861Z,60
2019-04-16T15:47:53.852Z,56
2019-04-16T15:48:40.636Z,56
2019-04-16T15:49:24.142Z,56
2019-04-16T15:50:05.335Z,60
2019-04-16T15:50:46.064Z,56
2019-04-16T15:51:28.331Z,56
2019-04-16T15:52:10.721Z,56
2019-04-16T15:52:51.019Z,56
2019-04-16T15:53:31.875Z,56
2019-04-16T15:54:13.016Z,56
2019-04-16T15:54:54.956Z,56
2019-04-16T15:55:35.583Z,56
2019-04-16T15:56:17.203Z,56
2019-04-16T15:57:00.130Z,56
2019-04-16T15:57:43.532Z,56
2019-04-16T15:58:27.703Z,56
2019-04-16T15:59:12.023Z,60
2019-04-16T15:59:56.184Z,56
2019-04-16T16:00:40.505Z,56
2019-04-16T16:01:22.739Z,56
2019-04-16T16:02:04.381Z,60
2019-04-16T16:02:45.675Z,56
2019-04-16T16:03:27.023Z,56
2019-04-16T16:04:08.827Z,56
2019-04-16T16:04:51.716Z,56
2019-04-16T16:05:31.919Z,56
2019-04-16T16:06:13.183Z,56
2019-04-16T16:06:55.776Z,56
2019-04-16T16:07:36.481Z,56
2019-04-16T16:08:17.844Z,56
2019-04-16T16:08:58.737Z,60
2019-04-16T16:09:40.871Z,60
2019-04-16T16:10:20.574Z,48
2019-04-16T16:11:01.278Z,56
2019-04-16T16:11:44.423Z,56
2019-04-16T16:12:23.064Z,60
2019-04-16T16:13:03.939Z,56
2019-04-16T16:13:44.706Z,56
2019-04-16T16:14:25.628Z,56
2019-04-16T16:15:09.185Z,56
2019-04-16T16:15:48.711Z,56
2019-04-16T16:16:40.795Z,56
2019-04-16T16:17:10.181Z,56
2019-04-16T16:17:51.136Z,56
2019-04-16T16:18:32.020Z,56
2019-04-16T16:19:12.790Z,56
2019-04-16T16:19:53.683Z,56
2019-04-16T16:20:34.790Z,60
2019-04-16T16:21:16.762Z,56
2019-04-16T16:21:58.308Z,56
2019-04-16T16:22:39.331Z,56
2019-04-16T16:23:20.663Z,56
2019-04-16T16:24:06.030Z,56
2019-04-16T16:24:42.996Z,56
2019-04-16T16:25:23.014Z,56
2019-04-16T16:26:04.154Z,56
2019-04-16T16:26:44.892Z,56
2019-04-16T16:27:25.974Z,56
2019-04-16T16:28:06.758Z,56
2019-04-16T16:28:47.605Z,56
2019-04-16T16:29:28.478Z,56
2019-04-16T16:30:09.203Z,56
2019-04-16T16:30:49.987Z,56
2019-04-16T16:31:33.489Z,52
2019-04-16T16:32:11.693Z,52
2019-04-16T16:32:52.618Z,56
2019-04-16T16:33:33.491Z,56
2019-04-16T16:34:14.295Z,56
2019-04-16T16:34:55.524Z,56
2019-04-16T16:35:36.041Z,56
2019-04-16T16:36:16.832Z,56
2019-04-16T16:36:57.683Z,56
2019-04-16T16:37:38.518Z,56
2019-04-16T16:38:20.901Z,56
2019-04-16T16:39:00.063Z,56
2019-04-16T16:39:40.815Z,56
2019-04-16T16:40:21.639Z,56
2019-04-16T16:41:02.398Z,56
2019-04-16T16:41:46.305Z,56
2019-04-16T16:42:23.998Z,56
2019-04-16T16:43:07.867Z,56
2019-04-16T16:43:45.712Z,56
2019-04-16T16:44:26.473Z,56
2019-04-16T16:45:07.715Z,56
2019-04-16T16:45:48.506Z,56
2019-04-16T16:46:29.282Z,52
2019-04-16T16:47:10.005Z,52
2019-04-16T16:47:50.766Z,52
2019-04-16T16:48:31.549Z,56
2019-04-16T16:49:12.362Z,52
2019-04-16T16:49:53.246Z,52
2019-04-16T16:50:34.087Z,52
2019-04-16T16:51:15.566Z,52
2019-04-16T16:51:55.633Z,52
2019-04-16T16:52:36.686Z,52
2019-04-16T16:53:17.140Z,52
2019-04-16T16:53:58.038Z,52
2019-04-16T16:54:38.892Z,52
2019-04-16T16:55:19.814Z,52
2019-04-16T16:56:00.588Z,52
2019-04-16T16:56:41.310Z,56
2019-04-16T16:57:22.089Z,56
2019-04-16T16:58:03.172Z,56
2019-04-16T16:58:43.881Z,56
2019-04-16T16:59:24.725Z,56
2019-04-16T17:00:05.515Z,56
2019-04-16T17:00:46.235Z,56
2019-04-16T17:01:27.070Z,56
2019-04-16T17:02:09.802Z,56
2019-04-16T17:02:48.597Z,56
2019-04-16T17:03:29.485Z,56
2019-04-16T17:04:10.390Z,52
2019-04-16T17:05:44.072Z,12
2019-04-16T17:06:27.760Z,12
2019-04-16T17:07:10.663Z,12
2019-04-16T17:07:53.533Z,12
2019-04-16T17:08:35.274Z,12
